createdAt,value
2022-07-29T00:00:15.563Z,2.60
2022-07-29T00:02:43.931Z,2.63
2022-07-29T00:05:14.820Z,2.35
2022-07-29T00:07:43.205Z,2.83
2022-07-29T00:10:11.356Z,2.60
2022-07-29T00:12:39.426Z,2.80
2022-07-29T00:15:26.879Z,2.50
2022-07-29T00:17:55.101Z,2.75
2022-07-29T00:20:23.649Z,2.80
2022-07-29T00:23:13.580Z,2.35
2022-07-29T00:25:42.030Z,2.65
2022-07-29T00:28:10.122Z,2.40
2022-07-29T00:30:38.456Z,2.72
2022-07-29T00:33:09.081Z,2.40
2022-07-29T00:35:46.339Z,2.17
2022-07-29T00:38:16.757Z,2.60
2022-07-29T00:40:45.737Z,2.13
2022-07-29T00:43:15.514Z,2.50
2022-07-29T00:46:02.979Z,2.78
2022-07-29T00:48:31.231Z,3.50
2022-07-29T00:51:01.106Z,2.30
2022-07-29T00:53:29.443Z,2.95
2022-07-29T00:56:16.026Z,1.58
2022-07-29T00:58:44.756Z,2.20
2022-07-29T01:01:13.030Z,2.17
2022-07-29T01:03:41.240Z,2.13
2022-07-29T01:06:10.969Z,2.28
2022-07-29T01:08:39.732Z,2.58
2022-07-29T01:11:27.120Z,2.22
2022-07-29T01:13:55.527Z,1.75
2022-07-29T01:16:54.689Z,1.42
2022-07-29T01:19:40.749Z,2.10
2022-07-29T01:22:36.299Z,2.30
2022-07-29T01:25:12.410Z,2.40
2022-07-29T01:27:52.807Z,1.88
2022-07-29T01:30:25.611Z,2.03
2022-07-29T01:33:00.203Z,1.98
2022-07-29T01:35:37.852Z,2.15
2022-07-29T01:38:24.893Z,2.25
2022-07-29T01:41:13.889Z,1.90
2022-07-29T01:44:02.774Z,1.90
2022-07-29T01:47:01.972Z,1.77
2022-07-29T01:49:35.011Z,1.95
2022-07-29T01:52:12.293Z,2.30
2022-07-29T01:54:46.648Z,2.78
2022-07-29T01:57:21.198Z,1.67
2022-07-29T01:59:51.283Z,1.85
2022-07-29T02:02:20.455Z,1.60
2022-07-29T02:04:50.748Z,2.05
2022-07-29T02:07:39.328Z,1.77
2022-07-29T02:10:09.757Z,1.40
2022-07-29T02:12:42.134Z,2.05
2022-07-29T02:15:33.316Z,1.85
2022-07-29T02:18:18.038Z,2.13
2022-07-29T02:20:49.720Z,2.38
2022-07-29T02:25:57.609Z,1.60
2022-07-29T02:28:45.221Z,2.05
2022-07-29T02:31:15.205Z,2.30
2022-07-29T02:33:45.336Z,2.15
2022-07-29T02:36:14.166Z,1.88
2022-07-29T02:38:52.824Z,2.13
2022-07-29T02:41:45.215Z,2.03
2022-07-29T02:44:21.355Z,2.10
2022-07-29T02:46:55.253Z,1.77
2022-07-29T02:49:35.837Z,2.00
2022-07-29T02:52:09.998Z,2.03
2022-07-29T02:54:47.383Z,1.80
2022-07-29T02:57:30.320Z,2.55
2022-07-29T03:00:05.231Z,1.90
2022-07-29T03:02:37.995Z,1.80
2022-07-29T03:05:25.054Z,1.80
2022-07-29T03:08:14.534Z,1.70
2022-07-29T03:10:46.893Z,1.50
2022-07-29T03:13:16.231Z,1.75
2022-07-29T03:15:45.750Z,1.60
2022-07-29T03:18:15.004Z,1.88
2022-07-29T03:21:02.139Z,2.20
2022-07-29T03:23:33.173Z,1.63
2022-07-29T03:26:23.966Z,1.60
2022-07-29T03:28:52.243Z,1.98
2022-07-29T03:31:20.651Z,1.73
2022-07-29T03:34:07.630Z,1.67
2022-07-29T03:36:35.923Z,1.85
2022-07-29T03:39:05.782Z,1.30
2022-07-29T03:41:56.990Z,1.50
2022-07-29T03:44:26.991Z,1.83
2022-07-29T03:46:59.862Z,1.52
2022-07-29T03:49:29.229Z,1.65
2022-07-29T03:51:57.547Z,1.73
2022-07-29T03:54:25.920Z,1.67
2022-07-29T03:56:55.631Z,1.95
2022-07-29T03:59:24.245Z,1.52
2022-07-29T04:01:53.238Z,1.77
2022-07-29T04:07:07.394Z,1.83
2022-07-29T04:09:35.573Z,1.73
2022-07-29T04:12:04.449Z,1.42
2022-07-29T04:14:33.977Z,1.50
2022-07-29T04:17:03.500Z,1.98
2022-07-29T04:19:32.462Z,1.48
2022-07-29T04:22:01.647Z,1.55
2022-07-29T04:24:30.231Z,1.50
2022-07-29T04:26:58.313Z,1.30
2022-07-29T04:29:26.532Z,1.67
2022-07-29T04:31:55.108Z,1.45
2022-07-29T04:34:41.651Z,1.30
2022-07-29T04:37:09.783Z,1.25
2022-07-29T04:39:37.843Z,1.25
2022-07-29T04:42:06.222Z,1.00
2022-07-29T04:44:37.203Z,1.25
2022-07-29T04:47:09.363Z,1.60
2022-07-29T04:49:40.001Z,1.35
2022-07-29T04:52:08.421Z,1.20
2022-07-29T04:54:36.366Z,1.58
2022-07-29T04:57:04.322Z,2.40
2022-07-29T04:59:32.336Z,1.38
2022-07-29T05:02:00.318Z,1.58
2022-07-29T05:04:28.389Z,1.00
2022-07-29T05:06:56.406Z,1.40
2022-07-29T05:09:24.462Z,1.67
2022-07-29T05:11:52.584Z,1.35
2022-07-29T05:14:20.837Z,1.70
2022-07-29T05:16:52.444Z,2.45
2022-07-29T05:19:21.140Z,2.13
2022-07-29T05:21:49.219Z,1.60
2022-07-29T05:24:35.828Z,1.88
2022-07-29T05:27:03.878Z,1.90
2022-07-29T05:29:44.566Z,1.70
2022-07-29T05:32:14.674Z,1.45
2022-07-29T05:34:50.419Z,1.40
2022-07-29T05:37:21.185Z,1.98
2022-07-29T05:39:56.920Z,1.85
2022-07-29T05:45:11.972Z,2.75
2022-07-29T05:47:39.947Z,1.60
2022-07-29T05:50:08.468Z,2.17
2022-07-29T05:52:36.481Z,2.75
2022-07-29T05:55:06.716Z,1.60
2022-07-29T05:57:34.776Z,2.00
2022-07-29T06:00:03.313Z,2.38
2022-07-29T06:02:49.863Z,1.70
2022-07-29T06:05:18.529Z,2.10
2022-07-29T06:07:50.883Z,2.28
2022-07-29T06:10:20.321Z,2.05
2022-07-29T06:12:52.066Z,2.30
2022-07-29T06:15:20.172Z,1.50
2022-07-29T06:17:59.840Z,1.70
2022-07-29T06:20:32.992Z,2.40
2022-07-29T06:23:20.907Z,2.15
2022-07-29T06:25:49.720Z,3.30
2022-07-29T06:28:17.764Z,3.03
2022-07-29T06:30:45.777Z,3.30
2022-07-29T06:33:19.917Z,3.47
2022-07-29T06:35:53.331Z,3.50
2022-07-29T06:38:30.984Z,3.72
2022-07-29T06:41:07.058Z,3.50
2022-07-29T06:43:51.785Z,3.75
2022-07-29T06:46:23.391Z,3.20
2022-07-29T06:48:53.110Z,2.85
2022-07-29T06:51:39.906Z,2.83
2022-07-29T06:54:07.983Z,2.85
2022-07-29T06:56:40.433Z,2.88
2022-07-29T06:59:13.416Z,3.30
2022-07-29T07:01:43.514Z,2.88
2022-07-29T07:04:12.973Z,3.15
2022-07-29T07:06:41.251Z,3.25
2022-07-29T07:09:09.272Z,3.20
2022-07-29T07:11:37.372Z,3.65
2022-07-29T07:14:05.590Z,3.80
2022-07-29T07:16:33.964Z,3.83
2022-07-29T07:19:02.267Z,3.33
2022-07-29T07:21:31.375Z,3.45
2022-07-29T07:24:00.213Z,3.70
2022-07-29T07:29:14.313Z,3.10
2022-07-29T07:31:42.384Z,2.80
2022-07-29T07:34:10.540Z,3.40
2022-07-29T07:36:38.511Z,2.95
2022-07-29T07:39:26.201Z,2.40
2022-07-29T07:41:54.313Z,2.67
2022-07-29T07:44:22.966Z,2.47
2022-07-29T07:46:51.245Z,3.00
2022-07-29T07:49:19.413Z,2.70
2022-07-29T07:51:50.800Z,2.80
2022-07-29T07:57:08.013Z,2.35
2022-07-29T07:59:36.125Z,3.20
2022-07-29T08:02:04.415Z,2.10
2022-07-29T08:04:32.893Z,2.17
2022-07-29T08:07:02.300Z,2.38
2022-07-29T08:09:31.043Z,1.95
2022-07-29T08:12:00.235Z,2.15
2022-07-29T08:14:28.280Z,2.08
2022-07-29T08:16:56.303Z,1.92
2022-07-29T08:19:24.470Z,1.98
2022-07-29T08:21:55.048Z,1.73
2022-07-29T08:24:42.081Z,2.08
2022-07-29T08:27:40.847Z,2.85
2022-07-29T08:30:02.160Z,2.10
2022-07-29T08:32:52.585Z,1.88
2022-07-29T08:35:18.826Z,2.22
2022-07-29T08:37:46.924Z,2.30
2022-07-29T08:43:22.194Z,1.40
2022-07-29T08:45:51.954Z,1.83
2022-07-29T08:48:22.259Z,2.10
2022-07-29T08:50:55.943Z,1.80
2022-07-29T08:53:28.010Z,1.77
2022-07-29T08:55:57.320Z,1.60
2022-07-29T08:58:26.060Z,1.85
2022-07-29T09:01:18.291Z,1.70
2022-07-29T09:03:48.706Z,1.45
2022-07-29T09:06:19.322Z,1.63
2022-07-29T09:08:47.676Z,2.08
2022-07-29T09:11:34.807Z,1.30
2022-07-29T09:14:03.194Z,1.23
2022-07-29T09:16:53.053Z,1.85
2022-07-29T09:19:45.377Z,1.40
2022-07-29T09:22:14.810Z,1.33
2022-07-29T09:25:01.538Z,1.65
2022-07-29T09:30:15.992Z,1.38
2022-07-29T09:32:59.555Z,1.60
2022-07-29T09:35:28.532Z,1.67
2022-07-29T09:37:57.154Z,1.67
2022-07-29T09:40:28.108Z,1.65
2022-07-29T09:42:59.601Z,1.20
2022-07-29T09:45:30.528Z,1.73
2022-07-29T09:48:04.511Z,2.00
2022-07-29T09:50:41.084Z,1.48
2022-07-29T09:55:52.189Z,1.13
2022-07-29T09:58:22.574Z,1.60
2022-07-29T10:00:52.173Z,1.30
2022-07-29T10:03:20.898Z,1.30
2022-07-29T10:06:14.700Z,1.42
2022-07-29T10:08:43.020Z,1.90
2022-07-29T10:11:16.202Z,1.55
2022-07-29T10:13:46.002Z,1.40
2022-07-29T10:16:15.727Z,1.63
2022-07-29T10:18:45.733Z,1.35
2022-07-29T10:21:22.483Z,1.70
2022-07-29T10:26:31.630Z,1.70
2022-07-29T10:28:59.986Z,1.30
2022-07-29T10:31:35.002Z,1.98
2022-07-29T10:34:30.687Z,1.50
2022-07-29T10:37:11.869Z,1.75
2022-07-29T10:39:58.652Z,1.70
2022-07-29T10:42:46.319Z,1.20
2022-07-29T10:45:18.769Z,1.05
2022-07-29T10:47:46.860Z,1.55
2022-07-29T10:50:17.412Z,1.20
2022-07-29T10:55:45.780Z,1.20
2022-07-29T10:58:22.189Z,1.17
2022-07-29T11:00:52.524Z,1.42
2022-07-29T11:03:52.344Z,1.33
2022-07-29T11:06:26.338Z,1.60
2022-07-29T11:12:37.627Z,1.00
2022-07-29T11:15:22.215Z,1.20
2022-07-29T11:17:59.538Z,1.20
2022-07-29T11:20:37.817Z,1.17
2022-07-29T11:23:33.835Z,1.10
2022-07-29T11:26:15.020Z,1.40
2022-07-29T11:29:14.795Z,1.10
2022-07-29T11:31:55.674Z,1.65
2022-07-29T11:34:36.908Z,1.38
2022-07-29T11:37:11.022Z,1.08
2022-07-29T11:39:43.277Z,0.82
2022-07-29T11:42:32.400Z,1.15
2022-07-29T11:45:42.696Z,1.23
2022-07-29T11:48:27.741Z,0.82
2022-07-29T11:50:49.240Z,1.00
2022-07-29T11:53:17.842Z,0.68
2022-07-29T11:55:51.217Z,1.10
2022-07-29T11:58:25.149Z,1.70
2022-07-29T12:00:55.275Z,1.42
2022-07-29T12:03:35.546Z,1.20
2022-07-29T12:06:15.003Z,1.40
2022-07-29T12:08:44.620Z,1.08
2022-07-29T12:11:21.755Z,1.30
2022-07-29T12:13:52.000Z,1.35
2022-07-29T12:16:25.958Z,1.30
2022-07-29T12:18:58.302Z,1.13
2022-07-29T12:21:56.937Z,1.05
2022-07-29T12:24:27.667Z,1.40
2022-07-29T12:27:00.653Z,1.35
2022-07-29T12:29:34.623Z,1.58
2022-07-29T12:32:05.776Z,1.33
2022-07-29T12:34:42.376Z,1.65
2022-07-29T12:37:11.474Z,1.42
2022-07-29T12:39:40.585Z,1.60
2022-07-29T12:42:18.681Z,1.40
2022-07-29T12:45:07.012Z,1.33
2022-07-29T12:47:51.959Z,1.60
2022-07-29T12:50:56.959Z,1.20
2022-07-29T12:53:25.429Z,1.30
2022-07-29T12:55:55.531Z,6.80
2022-07-29T12:58:32.481Z,3.17
2022-07-29T13:01:18.385Z,3.10
2022-07-29T13:03:56.698Z,1.77
2022-07-29T13:06:51.037Z,1.40
2022-07-29T13:09:21.397Z,1.48
2022-07-29T13:11:54.589Z,1.38
2022-07-29T13:14:34.892Z,1.30
2022-07-29T13:17:05.762Z,1.65
2022-07-29T13:19:42.962Z,1.23
2022-07-29T13:22:13.901Z,1.80
2022-07-29T13:24:52.413Z,2.20
2022-07-29T13:27:23.278Z,1.75
2022-07-29T13:30:11.884Z,1.40
2022-07-29T13:32:40.034Z,1.52
2022-07-29T13:35:09.837Z,1.35
2022-07-29T13:37:40.943Z,1.10
2022-07-29T13:40:10.540Z,1.00
2022-07-29T13:42:38.901Z,1.15
2022-07-29T13:45:08.015Z,0.90
2022-07-29T13:47:36.231Z,1.23
2022-07-29T13:50:09.347Z,1.20
2022-07-29T13:52:56.097Z,1.23
2022-07-29T13:55:24.383Z,1.27
2022-07-29T14:00:24.825Z,0.98
2022-07-29T14:02:53.440Z,0.95
2022-07-29T14:05:21.650Z,1.30
2022-07-29T14:07:49.674Z,1.00
2022-07-29T14:10:20.137Z,1.77
2022-07-29T14:13:07.006Z,1.17
2022-07-29T14:15:53.075Z,1.00
2022-07-29T14:18:21.070Z,1.15
2022-07-29T14:20:49.447Z,1.25
2022-07-29T14:23:17.765Z,1.30
2022-07-29T14:25:49.413Z,1.33
2022-07-29T14:28:17.628Z,0.77
2022-07-29T14:30:45.743Z,0.85
2022-07-29T14:33:13.901Z,1.15
2022-07-29T14:35:41.927Z,0.80
2022-07-29T14:38:10.026Z,0.80
2022-07-29T14:40:38.282Z,1.00
2022-07-29T14:43:06.933Z,1.13
2022-07-29T14:45:35.209Z,0.85
2022-07-29T14:48:03.363Z,0.80
2022-07-29T14:50:32.300Z,1.02
2022-07-29T14:53:01.432Z,1.00
2022-07-29T14:55:29.708Z,1.17
2022-07-29T14:58:07.712Z,1.00
2022-07-29T15:00:38.889Z,0.90
2022-07-29T15:03:11.210Z,1.55
2022-07-29T15:05:58.353Z,1.45
2022-07-29T15:08:26.618Z,1.40
2022-07-29T15:10:54.703Z,1.23
2022-07-29T15:13:22.929Z,1.52
2022-07-29T15:15:51.156Z,1.17
2022-07-29T15:18:25.683Z,1.17
2022-07-29T15:20:53.953Z,1.58
2022-07-29T15:23:22.133Z,1.20
2022-07-29T15:25:50.288Z,1.17
2022-07-29T15:28:18.256Z,1.65
2022-07-29T15:30:46.469Z,1.10
2022-07-29T15:33:14.395Z,0.90
2022-07-29T15:35:42.492Z,0.82
2022-07-29T15:38:10.598Z,1.05
2022-07-29T15:40:57.389Z,1.23
2022-07-29T15:43:26.565Z,1.23
2022-07-29T15:46:12.982Z,0.85
2022-07-29T15:48:41.336Z,1.13
2022-07-29T15:51:09.525Z,1.02
2022-07-29T15:53:37.579Z,0.98
2022-07-29T15:56:05.825Z,0.98
2022-07-29T15:58:33.908Z,0.90
2022-07-29T16:01:02.125Z,0.98
2022-07-29T16:03:30.236Z,1.45
2022-07-29T16:05:58.246Z,1.10
2022-07-29T16:08:26.201Z,1.20
2022-07-29T16:10:54.291Z,1.52
2022-07-29T16:13:23.618Z,0.80
2022-07-29T16:16:02.159Z,1.00
2022-07-29T16:21:17.179Z,1.20
2022-07-29T16:23:45.653Z,0.98
2022-07-29T16:26:32.256Z,1.52
2022-07-29T16:29:00.841Z,0.73
2022-07-29T16:31:29.039Z,0.88
2022-07-29T16:33:57.514Z,0.90
2022-07-29T16:36:25.570Z,0.95
2022-07-29T16:38:53.565Z,1.20
2022-07-29T16:41:21.825Z,1.70
2022-07-29T16:43:49.914Z,1.00
2022-07-29T16:46:18.907Z,1.20
2022-07-29T16:48:48.566Z,1.50
2022-07-29T16:51:16.943Z,1.02
2022-07-29T16:53:45.199Z,0.98
2022-07-29T16:56:13.244Z,0.90
2022-07-29T16:58:43.871Z,1.00
2022-07-29T17:01:12.617Z,1.10
2022-07-29T17:04:00.899Z,0.98
2022-07-29T17:06:29.408Z,1.00
2022-07-29T17:08:57.727Z,1.40
2022-07-29T17:11:52.426Z,1.13
2022-07-29T17:14:13.710Z,1.33
2022-07-29T17:16:41.723Z,1.55
2022-07-29T17:19:11.220Z,1.05
2022-07-29T17:21:47.294Z,1.98
2022-07-29T17:24:17.541Z,2.33
2022-07-29T17:26:45.729Z,0.98
2022-07-29T17:29:16.181Z,1.35
2022-07-29T17:31:44.250Z,1.67
2022-07-29T17:34:12.725Z,1.90
2022-07-29T17:36:40.847Z,2.88
2022-07-29T17:39:27.178Z,1.85
2022-07-29T17:41:55.304Z,1.40
2022-07-29T17:44:23.291Z,1.73
2022-07-29T17:49:37.386Z,2.08
2022-07-29T17:52:05.793Z,1.30
2022-07-29T17:54:33.883Z,1.52
2022-07-29T17:57:02.075Z,2.58
2022-07-29T17:59:30.446Z,2.25
2022-07-29T18:01:58.694Z,2.58
2022-07-29T18:04:26.800Z,2.00
2022-07-29T18:06:54.805Z,1.70
2022-07-29T18:09:22.737Z,2.10
2022-07-29T18:11:51.028Z,2.15
2022-07-29T18:14:19.434Z,2.28
2022-07-29T18:16:47.471Z,2.45
2022-07-29T18:22:05.188Z,2.90
2022-07-29T18:24:34.139Z,2.60
2022-07-29T18:27:02.574Z,2.92
2022-07-29T18:29:30.842Z,2.60
2022-07-29T18:32:01.989Z,2.00
2022-07-29T18:34:30.084Z,2.33
2022-07-29T18:36:58.295Z,2.63
2022-07-29T18:39:26.507Z,2.58
2022-07-29T18:41:54.529Z,2.55
2022-07-29T18:44:23.000Z,2.95
2022-07-29T18:46:55.777Z,2.83
2022-07-29T18:49:24.029Z,2.33
2022-07-29T18:51:52.616Z,2.20
2022-07-29T18:54:20.629Z,2.47
2022-07-29T18:56:48.724Z,4.05
2022-07-29T18:59:17.219Z,2.47
2022-07-29T19:01:45.563Z,2.28
2022-07-29T19:04:13.788Z,2.42
2022-07-29T19:06:42.115Z,2.53
2022-07-29T19:09:10.398Z,2.45
2022-07-29T19:11:39.217Z,2.53
2022-07-29T19:14:07.841Z,2.58
2022-07-29T19:16:36.027Z,2.08
2022-07-29T19:19:05.010Z,2.58
2022-07-29T19:21:33.160Z,2.30
2022-07-29T19:24:06.735Z,2.20
2022-07-29T19:26:39.272Z,2.33
2022-07-29T19:29:07.290Z,2.10
2022-07-29T19:31:35.468Z,2.10
2022-07-29T19:34:03.619Z,1.88
2022-07-29T19:36:31.720Z,2.35
2022-07-29T19:39:00.794Z,3.08
2022-07-29T19:41:28.780Z,2.22
2022-07-29T19:43:57.583Z,2.90
2022-07-29T19:46:29.148Z,2.70
2022-07-29T19:48:57.476Z,2.17
2022-07-29T19:51:25.611Z,2.67
2022-07-29T19:53:53.901Z,2.25
2022-07-29T19:56:21.927Z,2.72
2022-07-29T19:58:52.350Z,2.67
2022-07-29T20:01:21.026Z,2.70
2022-07-29T20:03:49.118Z,2.88
2022-07-29T20:06:17.323Z,3.75
2022-07-29T20:08:45.670Z,3.58
2022-07-29T20:11:13.744Z,3.55
2022-07-29T20:13:41.797Z,2.85
2022-07-29T20:16:09.930Z,2.60
2022-07-29T20:18:38.094Z,3.10
2022-07-29T20:21:06.173Z,3.78
2022-07-29T20:23:54.182Z,3.92
2022-07-29T20:26:22.256Z,4.40
2022-07-29T20:28:50.397Z,4.95
2022-07-29T20:31:19.090Z,3.30
2022-07-29T20:34:06.195Z,4.05
2022-07-29T20:36:52.819Z,3.25
2022-07-29T20:39:21.501Z,5.45
2022-07-29T20:41:50.386Z,4.72
2022-07-29T20:44:21.190Z,4.35
2022-07-29T20:47:07.554Z,2.80
2022-07-29T20:49:36.579Z,3.75
2022-07-29T20:52:04.802Z,3.08
2022-07-29T20:54:32.912Z,3.22
2022-07-29T20:57:01.119Z,2.75
2022-07-29T20:59:29.491Z,4.03
2022-07-29T21:01:57.507Z,3.40
2022-07-29T21:04:30.789Z,3.08
2022-07-29T21:07:01.141Z,3.13
2022-07-29T21:09:29.616Z,2.67
2022-07-29T21:11:59.619Z,2.88
2022-07-29T21:14:36.424Z,2.40
2022-07-29T21:17:07.963Z,2.90
2022-07-29T21:19:36.212Z,3.78
2022-07-29T21:22:04.467Z,3.20
2022-07-29T21:24:32.802Z,2.30
2022-07-29T21:27:21.070Z,3.42
2022-07-29T21:29:50.206Z,3.20
2022-07-29T21:32:29.705Z,3.15
2022-07-29T21:34:58.612Z,2.80
2022-07-29T21:37:27.314Z,2.22
2022-07-29T21:40:14.316Z,3.00
2022-07-29T21:43:01.051Z,2.88
2022-07-29T21:45:29.344Z,3.08
2022-07-29T21:48:17.803Z,3.30
2022-07-29T21:50:47.281Z,2.65
2022-07-29T21:53:34.134Z,3.05
2022-07-29T21:56:58.965Z,2.15
2022-07-29T21:59:29.304Z,2.38
2022-07-29T22:02:16.662Z,2.53
2022-07-29T22:05:03.939Z,2.55
2022-07-29T22:07:54.560Z,3.00
2022-07-29T22:10:20.701Z,4.20
2022-07-29T22:12:58.893Z,2.53
2022-07-29T22:15:28.194Z,2.70
2022-07-29T22:17:56.594Z,3.00
2022-07-29T22:20:25.551Z,3.22
2022-07-29T22:22:54.291Z,2.90
2022-07-29T22:25:41.814Z,2.70
2022-07-29T22:28:10.034Z,3.00
2022-07-29T22:30:38.354Z,3.50
2022-07-29T22:33:06.661Z,3.65
2022-07-29T22:35:35.043Z,2.72
2022-07-29T22:38:03.383Z,2.63
2022-07-29T22:40:32.763Z,3.42
2022-07-29T22:43:02.514Z,2.88
2022-07-29T22:45:30.711Z,3.47
2022-07-29T22:47:59.397Z,3.47
2022-07-29T22:50:27.731Z,2.92
2022-07-29T22:52:55.964Z,3.10
2022-07-29T22:55:24.178Z,3.03
2022-07-29T22:58:11.106Z,2.90
2022-07-29T23:00:39.506Z,2.70
2022-07-29T23:03:07.614Z,2.70
2022-07-29T23:08:21.348Z,3.20
2022-07-29T23:10:49.570Z,3.13
2022-07-29T23:13:17.854Z,3.30
2022-07-29T23:15:46.108Z,3.22
2022-07-29T23:18:15.013Z,2.80
2022-07-29T23:20:44.546Z,3.05
2022-07-29T23:23:12.858Z,2.92
2022-07-29T23:25:41.510Z,3.10
2022-07-29T23:28:11.668Z,4.13
2022-07-29T23:30:59.938Z,3.75
2022-07-29T23:33:28.388Z,3.30
2022-07-29T23:35:56.667Z,3.05
2022-07-29T23:38:24.910Z,2.53
2022-07-29T23:40:53.045Z,2.80
2022-07-29T23:43:21.281Z,3.35
2022-07-29T23:45:49.521Z,2.58
2022-07-29T23:48:17.675Z,3.17
2022-07-29T23:50:45.822Z,4.43
2022-07-29T23:53:14.141Z,3.45
2022-07-29T23:55:42.435Z,3.10
2022-07-29T23:58:10.659Z,4.80
